createdAt,value
2018-04-02T00:00:04.142Z,93.57
2018-04-02T00:02:32.961Z,85.50
2018-04-02T00:05:01.810Z,91.00
2018-04-02T00:07:30.648Z,91.50
2018-04-02T00:09:59.492Z,94.03
2018-04-02T00:12:28.347Z,96.20
2018-04-02T00:14:57.971Z,90.17
2018-04-02T00:17:26.930Z,100.63
2018-04-02T00:19:55.779Z,97.17
2018-04-02T00:22:24.607Z,95.27
2018-04-02T00:24:53.442Z,97.87
2018-04-02T00:27:22.403Z,103.20
2018-04-02T00:29:52.054Z,99.33
2018-04-02T00:32:20.885Z,101.47
2018-04-02T00:34:50.522Z,100.03
2018-04-02T00:37:20.119Z,107.07
2018-04-02T00:39:49.742Z,110.30
2018-04-02T00:42:18.590Z,107.50
2018-04-02T00:44:47.448Z,111.93
2018-04-02T00:47:19.263Z,123.30
2018-04-02T00:49:48.097Z,114.67
2018-04-02T00:52:16.938Z,129.00
2018-04-02T00:54:46.554Z,124.80
2018-04-02T00:57:16.163Z,123.07
2018-04-02T00:59:45.789Z,126.20
2018-04-02T01:02:14.614Z,126.57
2018-04-02T01:04:43.469Z,114.00
2018-04-02T01:07:12.314Z,125.13
2018-04-02T01:09:41.161Z,115.90
2018-04-02T01:12:10.049Z,110.87
2018-04-02T01:14:38.933Z,117.37
2018-04-02T01:17:08.330Z,121.73
2018-04-02T01:19:37.180Z,115.00
2018-04-02T01:22:06.243Z,117.50
2018-04-02T01:24:35.110Z,130.23
2018-04-02T01:27:03.993Z,130.07
2018-04-02T01:29:32.857Z,129.87
2018-04-02T01:32:02.044Z,138.00
2018-04-02T01:34:31.672Z,139.57
2018-04-02T01:37:01.281Z,143.27
2018-04-02T01:39:30.138Z,130.87
2018-04-02T01:41:59.000Z,143.70
2018-04-02T01:44:27.842Z,140.93
2018-04-02T01:46:57.477Z,143.70
2018-04-02T01:49:26.318Z,142.33
2018-04-02T01:51:55.172Z,147.83
2018-04-02T01:54:24.016Z,134.53
2018-04-02T01:56:53.658Z,129.77
2018-04-02T01:59:22.485Z,131.57
2018-04-02T02:01:51.425Z,132.40
2018-04-02T02:04:20.274Z,137.87
2018-04-02T02:06:49.181Z,139.17
2018-04-02T02:09:18.937Z,127.10
2018-04-02T02:11:47.759Z,136.97
2018-04-02T02:14:16.603Z,143.50
2018-04-02T02:16:45.442Z,136.37
2018-04-02T02:19:14.294Z,140.37
2018-04-02T02:21:43.137Z,130.43
2018-04-02T02:24:12.771Z,135.43
2018-04-02T02:26:41.614Z,143.40
2018-04-02T02:29:10.469Z,131.67
2018-04-02T02:31:39.295Z,136.43
2018-04-02T02:34:08.162Z,141.20
2018-04-02T02:36:37.002Z,135.97
2018-04-02T02:39:05.864Z,139.20
2018-04-02T02:41:34.699Z,151.73
2018-04-02T02:44:03.675Z,150.60
2018-04-02T02:46:33.295Z,144.60
2018-04-02T02:49:02.152Z,145.63
2018-04-02T02:51:31.642Z,145.67
2018-04-02T02:54:01.279Z,148.07
2018-04-02T02:56:30.134Z,138.33
2018-04-02T02:58:59.300Z,144.47
2018-04-02T03:01:28.154Z,141.70
2018-04-02T03:03:56.999Z,135.63
2018-04-02T03:06:25.849Z,138.73
2018-04-02T03:08:54.796Z,142.33
2018-04-02T03:11:24.405Z,146.03
2018-04-02T03:13:54.143Z,137.73
2018-04-02T03:16:23.011Z,134.63
2018-04-02T03:18:52.639Z,142.13
2018-04-02T03:21:22.249Z,137.57
2018-04-02T03:23:51.610Z,144.10
2018-04-02T03:26:20.458Z,136.80
2018-04-02T03:28:49.306Z,148.87
2018-04-02T03:31:18.931Z,157.03
2018-04-02T03:33:48.395Z,153.77
2018-04-02T03:36:17.254Z,143.00
2018-04-02T03:38:46.093Z,145.53
2018-04-02T03:41:15.734Z,142.67
2018-04-02T03:43:44.582Z,138.00
2018-04-02T03:46:14.222Z,145.40
2018-04-02T03:48:43.070Z,133.67
2018-04-02T03:51:11.937Z,144.40
2018-04-02T03:53:41.545Z,138.03
2018-04-02T03:56:11.162Z,145.90
2018-04-02T03:58:40.767Z,131.87
2018-04-02T04:01:10.380Z,142.23
2018-04-02T04:03:39.985Z,135.13
2018-04-02T04:06:09.624Z,139.33
2018-04-02T04:08:38.475Z,136.03
2018-04-02T04:11:08.078Z,140.80
2018-04-02T04:13:37.702Z,145.83
2018-04-02T04:16:07.534Z,141.43
2018-04-02T04:18:36.388Z,134.50
2018-04-02T04:21:05.996Z,141.57
2018-04-02T04:23:35.635Z,152.83
2018-04-02T04:26:04.487Z,147.00
2018-04-02T04:28:34.110Z,151.87
2018-04-02T04:31:03.730Z,144.87
2018-04-02T04:33:32.581Z,144.00
2018-04-02T04:36:01.422Z,153.70
2018-04-02T04:38:30.282Z,160.13
2018-04-02T04:40:59.916Z,153.93
2018-04-02T04:43:29.535Z,147.23
2018-04-02T04:45:58.823Z,140.17
2018-04-02T04:48:28.439Z,153.43
2018-04-02T04:50:57.271Z,143.07
2018-04-02T04:53:26.116Z,152.97
2018-04-02T04:55:54.966Z,153.83
2018-04-02T04:58:24.570Z,137.00
2018-04-02T05:00:54.182Z,142.90
2018-04-02T05:03:23.794Z,142.87
2018-04-02T05:05:53.414Z,138.40
2018-04-02T05:08:22.282Z,134.50
2018-04-02T05:10:51.893Z,134.33
2018-04-02T05:13:21.515Z,124.20
2018-04-02T05:15:50.378Z,136.00
2018-04-02T05:18:19.214Z,138.07
2018-04-02T05:20:48.070Z,141.03
2018-04-02T05:23:17.675Z,133.53
2018-04-02T05:25:47.309Z,129.23
2018-04-02T05:28:16.155Z,135.80
2018-04-02T05:30:44.995Z,138.13
2018-04-02T05:33:13.854Z,131.60
2018-04-02T05:35:43.490Z,124.47
2018-04-02T05:38:12.328Z,133.17
2018-04-02T05:40:41.173Z,127.43
2018-04-02T05:43:10.021Z,127.60
2018-04-02T05:45:39.643Z,128.27
2018-04-02T05:48:09.240Z,129.73
2018-04-02T05:50:38.472Z,139.53
2018-04-02T05:53:08.858Z,137.60
2018-04-02T05:55:38.574Z,141.37
2018-04-02T05:58:07.381Z,136.67
2018-04-02T06:00:36.237Z,143.20
2018-04-02T06:03:05.852Z,145.60
2018-04-02T06:05:34.726Z,133.27
2018-04-02T06:08:03.558Z,132.67
2018-04-02T06:10:32.857Z,139.43
2018-04-02T06:13:02.454Z,128.17
2018-04-02T06:15:31.295Z,131.67
2018-04-02T06:18:00.158Z,133.27
2018-04-02T06:20:29.036Z,129.97
2018-04-02T06:22:57.890Z,127.80
2018-04-02T06:25:27.516Z,127.30
2018-04-02T06:27:56.362Z,131.17
2018-04-02T06:30:25.991Z,129.10
2018-04-02T06:32:55.577Z,126.90
2018-04-02T06:35:24.774Z,119.80
2018-04-02T06:37:53.675Z,130.07
2018-04-02T06:40:23.294Z,125.27
2018-04-02T06:42:52.905Z,125.47
2018-04-02T06:45:22.666Z,115.80
2018-04-02T06:47:51.565Z,112.57
2018-04-02T06:50:20.386Z,114.40
2018-04-02T06:52:49.242Z,109.70
2018-04-02T06:55:18.146Z,100.10
2018-04-02T06:57:47.005Z,115.50
2018-04-02T07:00:16.950Z,111.70
2018-04-02T07:02:46.134Z,106.20
2018-04-02T07:05:14.962Z,97.30
2018-04-02T07:07:44.059Z,89.10
2018-04-02T07:10:13.118Z,82.33
2018-04-02T07:12:41.965Z,81.23
2018-04-02T07:15:10.894Z,76.87
2018-04-02T07:17:39.766Z,80.00
2018-04-02T07:20:09.367Z,74.80
2018-04-02T07:22:38.975Z,74.17
2018-04-02T07:25:08.780Z,71.47
2018-04-02T07:27:41.192Z,69.43
2018-04-02T07:30:10.650Z,68.80
2018-04-02T07:32:41.010Z,71.97
2018-04-02T07:35:11.113Z,68.60
2018-04-02T07:37:39.984Z,64.40
2018-04-02T07:40:09.046Z,60.93
2018-04-02T07:42:37.966Z,61.50
2018-04-02T07:45:06.806Z,71.87
2018-04-02T07:47:35.654Z,63.27
2018-04-02T07:50:04.508Z,61.00
2018-04-02T07:52:34.134Z,67.00
2018-04-02T07:55:02.989Z,58.40
2018-04-02T07:57:32.633Z,54.73
2018-04-02T08:00:02.530Z,61.50
2018-04-02T08:02:32.273Z,54.17
2018-04-02T08:05:01.165Z,53.30
2018-04-02T08:07:30.003Z,56.27
2018-04-02T08:09:59.621Z,52.10
2018-04-02T08:12:29.239Z,51.87
2018-04-02T08:14:58.187Z,49.53
2018-04-02T08:17:27.009Z,49.60
2018-04-02T08:19:56.653Z,49.87
2018-04-02T08:22:25.502Z,44.70
2018-04-02T08:24:54.393Z,40.47
2018-04-02T08:27:24.011Z,38.93
2018-04-02T08:29:52.891Z,40.90
2018-04-02T08:32:22.504Z,42.87
2018-04-02T08:34:52.210Z,43.97
2018-04-02T08:37:21.030Z,42.60
2018-04-02T08:39:49.875Z,40.23
2018-04-02T08:42:19.491Z,41.70
2018-04-02T08:44:49.126Z,41.67
2018-04-02T08:47:18.318Z,37.27
2018-04-02T08:49:47.217Z,36.37
2018-04-02T08:52:16.108Z,33.57
2018-04-02T08:54:45.024Z,32.50
2018-04-02T08:57:13.872Z,33.60
2018-04-02T08:59:43.355Z,36.63
2018-04-02T09:02:12.230Z,34.97
2018-04-02T09:04:41.870Z,35.07
2018-04-02T09:07:10.761Z,34.23
2018-04-02T09:09:39.547Z,33.30
2018-04-02T09:12:08.414Z,35.07
2018-04-02T09:14:38.038Z,29.07
2018-04-02T09:17:06.900Z,29.47
2018-04-02T09:19:36.556Z,33.37
2018-04-02T09:22:05.416Z,32.67
2018-04-02T09:24:34.308Z,35.20
2018-04-02T09:27:03.932Z,32.10
2018-04-02T09:29:32.803Z,30.07
2018-04-02T09:32:02.434Z,26.17
2018-04-02T09:34:31.323Z,30.90
2018-04-02T09:37:00.173Z,27.60
2018-04-02T09:39:29.814Z,30.23
2018-04-02T09:41:58.698Z,25.70
2018-04-02T09:44:27.567Z,28.53
2018-04-02T09:46:57.207Z,25.73
2018-04-02T09:49:26.294Z,25.10
2018-04-02T09:51:55.139Z,24.33
2018-04-02T09:54:24.021Z,24.00
2018-04-02T09:56:53.657Z,25.53
2018-04-02T09:59:23.297Z,22.07
2018-04-02T10:01:52.136Z,24.43
2018-04-02T10:04:21.018Z,23.13
2018-04-02T10:06:50.014Z,21.73
2018-04-02T10:09:18.879Z,20.73
2018-04-02T10:11:47.922Z,18.97
2018-04-02T10:14:16.787Z,21.10
2018-04-02T10:16:46.415Z,23.63
2018-04-02T10:19:15.278Z,21.07
2018-04-02T10:21:44.906Z,20.60
2018-04-02T10:24:13.766Z,17.50
2018-04-02T10:26:43.366Z,17.73
2018-04-02T10:29:12.995Z,15.13
2018-04-02T10:31:42.624Z,17.63
2018-04-02T10:34:11.466Z,15.07
2018-04-02T10:36:40.323Z,17.13
2018-04-02T10:39:09.192Z,12.50
2018-04-02T10:41:38.068Z,13.63
2018-04-02T10:44:07.722Z,13.43
2018-04-02T10:46:36.556Z,14.20
2018-04-02T10:49:06.186Z,15.10
2018-04-02T10:51:35.052Z,15.53
2018-04-02T10:54:03.896Z,14.13
2018-04-02T10:56:33.851Z,11.67
2018-04-02T10:59:02.709Z,12.90
2018-04-02T11:01:31.605Z,12.10
2018-04-02T11:04:01.245Z,13.67
2018-04-02T11:06:30.094Z,13.03
2018-04-02T11:08:59.716Z,10.20
2018-04-02T11:11:30.012Z,11.03
2018-04-02T11:13:58.858Z,10.47
2018-04-02T11:16:28.460Z,10.90
2018-04-02T11:18:57.455Z,9.73
2018-04-02T11:21:26.306Z,10.93
2018-04-02T11:23:55.950Z,11.27
2018-04-02T11:26:24.813Z,12.70
2018-04-02T11:28:54.450Z,11.40
2018-04-02T11:31:23.290Z,11.30
2018-04-02T11:33:52.144Z,11.50
2018-04-02T11:36:20.993Z,15.63
2018-04-02T11:38:50.322Z,11.67
2018-04-02T11:41:19.661Z,11.77
2018-04-02T11:43:48.497Z,12.73
2018-04-02T11:46:17.366Z,13.57
2018-04-02T11:48:46.969Z,12.87
2018-04-02T11:51:16.602Z,11.67
2018-04-02T11:53:45.453Z,12.43
2018-04-02T11:56:15.235Z,12.80
2018-04-02T11:58:44.076Z,12.70
2018-04-02T12:01:12.928Z,10.43
2018-04-02T12:03:41.783Z,8.23
2018-04-02T12:06:11.396Z,8.13
2018-04-02T12:08:40.383Z,11.50
2018-04-02T12:11:10.015Z,8.00
2018-04-02T12:13:38.863Z,7.87
2018-04-02T12:16:07.772Z,9.03
2018-04-02T12:18:36.578Z,8.63
2018-04-02T12:21:05.487Z,9.87
2018-04-02T12:23:35.045Z,8.07
2018-04-02T12:26:04.660Z,8.10
2018-04-02T12:28:34.274Z,9.50
2018-04-02T12:31:03.871Z,7.80
2018-04-02T12:33:33.534Z,7.40
2018-04-02T12:36:02.391Z,10.80
2018-04-02T12:38:31.238Z,7.77
2018-04-02T12:41:03.317Z,8.27
2018-04-02T12:43:32.939Z,7.50
2018-04-02T12:46:02.568Z,6.33
2018-04-02T12:48:32.283Z,5.60
2018-04-02T12:51:01.098Z,6.57
2018-04-02T12:53:29.938Z,5.57
2018-04-02T12:55:58.798Z,5.93
2018-04-02T12:58:27.608Z,7.67
2018-04-02T13:00:56.529Z,6.50
2018-04-02T13:03:25.310Z,7.03
2018-04-02T13:05:54.329Z,6.80
2018-04-02T13:08:23.941Z,6.17
2018-04-02T13:10:53.571Z,7.97
2018-04-02T13:13:22.781Z,10.20
2018-04-02T13:15:51.623Z,11.80
2018-04-02T13:18:21.232Z,7.40
2018-04-02T13:20:50.880Z,6.97
2018-04-02T13:23:19.717Z,6.70
2018-04-02T13:25:49.014Z,5.73
2018-04-02T13:28:17.899Z,6.40
2018-04-02T13:30:46.718Z,6.67
2018-04-02T13:33:17.343Z,6.10
2018-04-02T13:35:46.173Z,7.07
2018-04-02T13:38:15.053Z,6.93
2018-04-02T13:40:43.908Z,5.33
2018-04-02T13:43:13.520Z,4.83
2018-04-02T13:45:43.158Z,8.63
2018-04-02T13:48:11.984Z,4.90
2018-04-02T13:50:40.810Z,5.13
2018-04-02T13:53:09.811Z,4.97
2018-04-02T13:55:38.679Z,4.47
2018-04-02T13:58:07.526Z,4.90
2018-04-02T14:00:36.407Z,7.20
2018-04-02T14:03:05.249Z,4.33
2018-04-02T14:05:34.090Z,4.20
2018-04-02T14:08:02.937Z,3.80
2018-04-02T14:10:31.771Z,3.30
2018-04-02T14:13:00.621Z,3.50
2018-04-02T14:15:29.447Z,4.60
2018-04-02T14:17:58.309Z,4.97
2018-04-02T14:20:27.902Z,7.40
2018-04-02T14:22:56.767Z,4.10
2018-04-02T14:25:25.599Z,4.97
2018-04-02T14:27:54.780Z,5.90
2018-04-02T14:30:23.707Z,4.53
2018-04-02T14:32:53.310Z,4.40
2018-04-02T14:35:22.126Z,5.43
2018-04-02T14:37:50.990Z,6.47
2018-04-02T14:40:19.827Z,4.80
2018-04-02T14:42:48.689Z,4.90
2018-04-02T14:45:17.587Z,6.80
2018-04-02T14:47:46.544Z,5.10
2018-04-02T14:50:15.373Z,5.33
2018-04-02T14:52:44.534Z,6.47
2018-04-02T14:55:13.391Z,3.90
2018-04-02T14:57:42.226Z,4.50
2018-04-02T15:00:11.089Z,7.43
2018-04-02T15:02:39.928Z,3.93
2018-04-02T15:05:09.551Z,3.73
2018-04-02T15:07:38.375Z,4.27
2018-04-02T15:10:07.239Z,3.77
2018-04-02T15:12:36.083Z,3.37
2018-04-02T15:15:04.950Z,3.63
2018-04-02T15:17:33.781Z,3.87
2018-04-02T15:20:02.610Z,3.30
2018-04-02T15:22:31.519Z,4.33
2018-04-02T15:25:00.374Z,5.60
2018-04-02T15:27:29.228Z,4.83
2018-04-02T15:29:58.107Z,4.83
2018-04-02T15:32:26.945Z,4.40
2018-04-02T15:34:55.776Z,4.30
2018-04-02T15:37:26.365Z,5.90
2018-04-02T15:39:55.226Z,4.30
2018-04-02T15:42:25.060Z,5.20
2018-04-02T15:44:53.875Z,4.90
2018-04-02T15:47:22.718Z,7.10
2018-04-02T15:49:52.324Z,5.27
2018-04-02T15:52:21.155Z,4.73
2018-04-02T15:54:50.007Z,6.40
2018-04-02T15:57:20.056Z,5.37
2018-04-02T15:59:49.661Z,8.10
2018-04-02T16:02:19.336Z,6.07
2018-04-02T16:04:48.202Z,7.57
2018-04-02T16:07:17.045Z,5.60
2018-04-02T16:09:45.870Z,6.00
2018-04-02T16:12:14.723Z,6.77
2018-04-02T16:14:43.563Z,9.33
2018-04-02T16:17:13.208Z,6.60
2018-04-02T16:19:42.023Z,7.30
2018-04-02T16:22:10.867Z,7.83
2018-04-02T16:24:40.475Z,6.77
2018-04-02T16:27:10.103Z,7.33
2018-04-02T16:29:39.269Z,12.30
2018-04-02T16:32:08.904Z,7.80
2018-04-02T16:34:37.734Z,8.50
2018-04-02T16:37:06.586Z,6.87
2018-04-02T16:39:35.441Z,6.60
2018-04-02T16:42:05.052Z,6.43
2018-04-02T16:44:34.682Z,7.60
2018-04-02T16:47:04.313Z,8.07
2018-04-02T16:49:33.137Z,6.60
2018-04-02T16:52:01.966Z,6.90
2018-04-02T16:54:30.823Z,8.47
2018-04-02T16:56:59.697Z,6.30
2018-04-02T16:59:29.030Z,7.97
2018-04-02T17:01:57.861Z,6.77
2018-04-02T17:04:27.450Z,6.87
2018-04-02T17:06:57.089Z,10.93
2018-04-02T17:09:25.936Z,21.40
2018-04-02T17:11:55.581Z,19.57
2018-04-02T17:14:25.192Z,17.10
2018-04-02T17:16:54.047Z,16.63
2018-04-02T17:19:23.666Z,18.37
2018-04-02T17:21:53.290Z,17.47
2018-04-02T17:24:22.165Z,13.60
2018-04-02T17:26:51.783Z,11.60
2018-04-02T17:29:20.919Z,8.83
2018-04-02T17:31:49.758Z,9.70
2018-04-02T17:34:19.418Z,11.27
2018-04-02T17:36:48.278Z,10.23
2018-04-02T17:39:17.967Z,10.60
2018-04-02T17:41:47.602Z,11.53
2018-04-02T17:44:16.475Z,12.00
2018-04-02T17:46:45.664Z,11.73
2018-04-02T17:49:17.443Z,10.40
2018-04-02T17:51:47.047Z,9.47
2018-04-02T17:54:15.883Z,7.50
2018-04-02T17:56:44.747Z,6.67
2018-04-02T17:59:13.591Z,5.97
2018-04-02T18:01:42.445Z,7.53
2018-04-02T18:04:12.078Z,5.93
2018-04-02T18:06:40.935Z,7.00
2018-04-02T18:09:10.560Z,5.60
2018-04-02T18:11:39.417Z,6.13
2018-04-02T18:14:08.250Z,6.60
2018-04-02T18:16:37.110Z,7.63
2018-04-02T18:19:07.442Z,5.33
2018-04-02T18:21:37.073Z,6.77
2018-04-02T18:24:05.914Z,7.17
2018-04-02T18:26:34.759Z,5.87
2018-04-02T18:29:03.618Z,6.57
2018-04-02T18:31:33.248Z,5.70
2018-04-02T18:34:02.192Z,5.27
2018-04-02T18:36:31.042Z,6.00
2018-04-02T18:38:59.873Z,5.87
2018-04-02T18:41:28.726Z,6.70
2018-04-02T18:43:57.611Z,6.27
2018-04-02T18:46:26.479Z,4.70
2018-04-02T18:48:56.118Z,5.77
2018-04-02T18:51:25.068Z,5.90
2018-04-02T18:53:53.922Z,7.27
2018-04-02T18:56:22.784Z,7.60
2018-04-02T18:58:51.657Z,4.27
2018-04-02T19:01:20.499Z,5.17
2018-04-02T19:03:49.341Z,4.83
2018-04-02T19:06:18.196Z,9.83
2018-04-02T19:08:47.071Z,7.27
2018-04-02T19:11:15.920Z,5.27
2018-04-02T19:13:44.762Z,6.53
2018-04-02T19:16:13.606Z,4.37
2018-04-02T19:18:43.250Z,4.03
2018-04-02T19:21:12.078Z,5.40
2018-04-02T19:23:40.929Z,4.93
2018-04-02T19:26:09.790Z,5.13
2018-04-02T19:28:38.642Z,5.07
2018-04-02T19:31:07.491Z,6.20
2018-04-02T19:33:36.337Z,6.80
2018-04-02T19:36:05.183Z,4.23
2018-04-02T19:38:33.982Z,4.53
2018-04-02T19:41:02.860Z,6.30
2018-04-02T19:43:31.729Z,5.13
2018-04-02T19:46:00.878Z,3.73
2018-04-02T19:48:29.710Z,4.43
2018-04-02T19:50:58.671Z,4.93
2018-04-02T19:53:27.523Z,4.50
2018-04-02T19:55:57.215Z,4.40
2018-04-02T19:58:26.501Z,3.60
2018-04-02T20:00:55.355Z,4.00
2018-04-02T20:03:24.186Z,5.00
2018-04-02T20:05:53.082Z,4.93
2018-04-02T20:08:22.362Z,5.27
2018-04-02T20:10:51.196Z,3.77
2018-04-02T20:13:20.818Z,7.60
2018-04-02T20:15:49.714Z,4.83
2018-04-02T20:18:19.360Z,3.50
2018-04-02T20:20:48.196Z,4.70
2018-04-02T20:23:17.073Z,3.87
2018-04-02T20:25:46.150Z,4.07
2018-04-02T20:28:15.032Z,4.90
2018-04-02T20:30:43.864Z,3.80
2018-04-02T20:33:13.476Z,3.60
2018-04-02T20:35:42.317Z,4.70
2018-04-02T20:38:11.157Z,3.30
2018-04-02T20:40:40.063Z,4.33
2018-04-02T20:43:08.889Z,3.53
2018-04-02T20:45:38.250Z,4.03
2018-04-02T20:48:07.109Z,5.47
2018-04-02T20:50:36.743Z,9.30
2018-04-02T20:53:06.350Z,5.83
2018-04-02T20:55:36.410Z,3.50
2018-04-02T20:58:05.254Z,3.70
2018-04-02T21:00:34.104Z,3.73
2018-04-02T21:03:03.742Z,5.00
2018-04-02T21:05:34.662Z,2.87
2018-04-02T21:08:03.531Z,4.63
2018-04-02T21:10:33.172Z,2.70
2018-04-02T21:13:02.032Z,5.47
2018-04-02T21:15:31.665Z,2.73
2018-04-02T21:18:00.517Z,3.53
2018-04-02T21:20:29.374Z,3.57
2018-04-02T21:22:58.210Z,3.67
2018-04-02T21:25:27.821Z,2.73
2018-04-02T21:27:57.484Z,2.67
2018-04-02T21:30:26.343Z,2.47
2018-04-02T21:32:55.602Z,2.77
2018-04-02T21:35:25.244Z,5.47
2018-04-02T21:37:54.535Z,3.07
2018-04-02T21:40:23.354Z,2.50
2018-04-02T21:42:52.222Z,2.60
2018-04-02T21:45:21.092Z,3.83
2018-04-02T21:47:50.719Z,3.27
2018-04-02T21:50:19.571Z,2.70
2018-04-02T21:52:48.399Z,3.73
2018-04-02T21:55:17.474Z,3.53
2018-04-02T21:57:46.441Z,3.93
2018-04-02T22:00:15.286Z,4.07
2018-04-02T22:02:44.130Z,2.97
2018-04-02T22:05:12.948Z,2.57
2018-04-02T22:07:41.795Z,2.77
2018-04-02T22:10:11.411Z,2.60
2018-04-02T22:12:41.045Z,3.83
2018-04-02T22:15:09.903Z,2.40
2018-04-02T22:17:39.524Z,2.57
2018-04-02T22:20:08.366Z,1.80
2018-04-02T22:22:38.094Z,2.40
2018-04-02T22:25:07.702Z,2.00
2018-04-02T22:27:37.334Z,2.73
2018-04-02T22:30:06.220Z,1.70
2018-04-02T22:32:35.918Z,2.30
2018-04-02T22:35:05.003Z,2.40
2018-04-02T22:37:34.691Z,1.70
2018-04-02T22:40:03.492Z,1.83
2018-04-02T22:42:32.919Z,3.80
2018-04-02T22:45:01.766Z,1.90
2018-04-02T22:47:30.635Z,3.00
2018-04-02T22:49:59.450Z,1.83
2018-04-02T22:52:28.291Z,2.50
2018-04-02T22:54:57.224Z,2.47
2018-04-02T22:57:26.052Z,3.00
2018-04-02T22:59:55.645Z,2.10
2018-04-02T23:02:25.260Z,3.63
2018-04-02T23:04:54.877Z,1.90
2018-04-02T23:07:23.695Z,2.27
2018-04-02T23:09:52.558Z,2.10
2018-04-02T23:12:21.394Z,2.93
2018-04-02T23:14:50.337Z,2.10
2018-04-02T23:17:19.398Z,2.27
2018-04-02T23:19:48.230Z,1.80
2018-04-02T23:22:28.906Z,2.00
2018-04-02T23:24:57.774Z,4.20
2018-04-02T23:27:26.837Z,2.33
2018-04-02T23:29:55.680Z,2.70
2018-04-02T23:32:24.526Z,2.07
2018-04-02T23:34:54.131Z,4.67
2018-04-02T23:39:58.979Z,2.27
2018-04-02T23:42:28.127Z,2.47
2018-04-02T23:44:57.199Z,2.87
2018-04-02T23:47:26.042Z,2.57
2018-04-02T23:49:54.903Z,3.57
2018-04-02T23:52:23.742Z,2.97
2018-04-02T23:54:53.673Z,2.60
2018-04-02T23:57:22.518Z,2.80
2018-04-02T23:59:51.342Z,2.27
